EPZG/IEG METAR and TAF weather

Enter ICAO airport designator
Station Type Date Time Source
EPZG METAR 2018/10/21 05:30 UTC NOAA

EPZG 210530Z 28002KT 8000 MIFG NSC 02/02 Q1028


Station Type Date Time Source
EPZG Decoded METAR 2018/10/21 05:30 UTC NOAA

Zielona Gora, Poland (EPZG) 51-56N 015-32E 192M
Oct 21, 2018 - 01:30 AM EDT / 2018.10.21 0530 UTC
Wind: from the W (280 degrees) at 2 MPH (2 KT):0
Visibility: 4 mile(s):0
Weather: shallow fog
Temperature: 35 F (2 C)
Dew Point: 35 F (2 C)
Relative Humidity: 100%
Pressure (altimeter): 30.36 in. Hg (1028 hPa)
ob: EPZG 210530Z 28002KT 8000 MIFG NSC 02/02 Q1028
cycle: 5

Station Type Date Time Source
EPZG TAF 2012/06/28 21:49 UTC NOAA

TAF EPZG 282000Z 2821/2906 VRB02KT CAVOK
TEMPO 2823/2904 5000 BR PROB30 2900/2904 1500 BR BKN005


Example: see airport list